sensor_id;sensor_type;location;lat;lon;timestamp;pressure;altitude;pressure_sealevel;temperature;humidity
68141;BME280;54941;52.220;104.306;2023-05-12T00:00:51;95659.25;;;15.57;24.65
68141;BME280;54941;52.220;104.306;2023-05-12T00:03:20;95649.19;;;15.46;24.54
68141;BME280;54941;52.220;104.306;2023-05-12T00:05:46;95646.72;;;16.25;23.52
68141;BME280;54941;52.220;104.306;2023-05-12T00:08:12;95636.94;;;16.26;23.54
68141;BME280;54941;52.220;104.306;2023-05-12T00:10:40;95642.41;;;14.15;26.04
68141;BME280;54941;52.220;104.306;2023-05-12T00:13:07;95627.13;;;16.11;24.15
68141;BME280;54941;52.220;104.306;2023-05-12T00:15:34;95626.97;;;15.81;24.64
68141;BME280;54941;52.220;104.306;2023-05-12T00:18:01;95619.19;;;15.93;24.31
68141;BME280;54941;52.220;104.306;2023-05-12T00:20:28;95611.06;;;17.49;22.79
68141;BME280;54941;52.220;104.306;2023-05-12T00:22:54;95607.84;;;16.53;23.16
68141;BME280;54941;52.220;104.306;2023-05-12T00:25:20;95601.78;;;17.85;22.18
68141;BME280;54941;52.220;104.306;2023-05-12T00:27:48;95605.53;;;17.53;22.68
68141;BME280;54941;52.220;104.306;2023-05-12T00:30:15;95602.59;;;16.04;24.17
68141;BME280;54941;52.220;104.306;2023-05-12T00:32:42;95588.56;;;18.52;21.71
68141;BME280;54941;52.220;104.306;2023-05-12T00:35:08;95596.56;;;17.54;22.84
68141;BME280;54941;52.220;104.306;2023-05-12T00:37:35;95582.13;;;18.95;21.35
68141;BME280;54941;52.220;104.306;2023-05-12T00:40:01;95587.16;;;18.87;21.52
68141;BME280;54941;52.220;104.306;2023-05-12T00:42:28;95595.13;;;17.48;22.64
68141;BME280;54941;52.220;104.306;2023-05-12T00:44:56;95567.19;;;17.82;22.49
68141;BME280;54941;52.220;104.306;2023-05-12T00:47:22;95571.97;;;17.04;23.19
68141;BME280;54941;52.220;104.306;2023-05-12T00:49:49;95569.22;;;17.78;22.88
68141;BME280;54941;52.220;104.306;2023-05-12T00:52:16;95567.31;;;20.06;20.33
68141;BME280;54941;52.220;104.306;2023-05-12T00:54:42;95562.78;;;19.57;20.87
68141;BME280;54941;52.220;104.306;2023-05-12T00:57:09;95556.19;;;18.56;21.84
68141;BME280;54941;52.220;104.306;2023-05-12T00:59:36;95562.66;;;18.25;22.12
68141;BME280;54941;52.220;104.306;2023-05-12T01:02:04;95542.78;;;20.36;20.34
68141;BME280;54941;52.220;104.306;2023-05-12T01:04:31;95547.28;;;19.35;21.37
68141;BME280;54941;52.220;104.306;2023-05-12T01:07:00;95541.34;;;19.05;21.46
68141;BME280;54941;52.220;104.306;2023-05-12T01:09:28;95530.78;;;19.16;21.56
68141;BME280;54941;52.220;104.306;2023-05-12T01:11:54;95527.59;;;19.62;21.09
68141;BME280;54941;52.220;104.306;2023-05-12T01:14:21;95514.72;;;21.12;19.93
68141;BME280;54941;52.220;104.306;2023-05-12T01:16:50;95519.72;;;21.16;19.90
68141;BME280;54941;52.220;104.306;2023-05-12T01:19:33;95510.09;;;19.81;20.64
68141;BME280;54941;52.220;104.306;2023-05-12T01:22:03;95511.81;;;19.32;20.61
68141;BME280;54941;52.220;104.306;2023-05-12T01:24:31;95502.22;;;20.04;20.40
68141;BME280;54941;52.220;104.306;2023-05-12T01:27:01;95501.63;;;19.49;20.24
68141;BME280;54941;52.220;104.306;2023-05-12T01:29:27;95495.34;;;19.63;20.32
68141;BME280;54941;52.220;104.306;2023-05-12T01:31:54;95496.44;;;17.75;22.35
68141;BME280;54941;52.220;104.306;2023-05-12T01:34:21;95509.94;;;18.00;22.47
68141;BME280;54941;52.220;104.306;2023-05-12T01:36:47;95491.09;;;21.28;19.30
68141;BME280;54941;52.220;104.306;2023-05-12T01:39:13;95494.34;;;20.14;20.08
68141;BME280;54941;52.220;104.306;2023-05-12T01:41:41;95485.06;;;21.13;19.11
68141;BME280;54941;52.220;104.306;2023-05-12T01:44:09;95475.00;;;21.62;18.84
68141;BME280;54941;52.220;104.306;2023-05-12T01:46:36;95469.66;;;21.04;19.79
68141;BME280;54941;52.220;104.306;2023-05-12T01:49:02;95463.06;;;19.52;20.11
68141;BME280;54941;52.220;104.306;2023-05-12T01:51:28;95463.19;;;19.12;21.00
68141;BME280;54941;52.220;104.306;2023-05-12T01:53:55;95475.59;;;18.88;21.46
68141;BME280;54941;52.220;104.306;2023-05-12T01:56:21;95465.31;;;20.31;20.40
68141;BME280;54941;52.220;104.306;2023-05-12T01:58:47;95457.28;;;20.55;20.31
68141;BME280;54941;52.220;104.306;2023-05-12T02:01:15;95456.81;;;20.14;20.13
68141;BME280;54941;52.220;104.306;2023-05-12T02:03:41;95455.00;;;20.38;19.86
68141;BME280;54941;52.220;104.306;2023-05-12T02:06:07;95451.38;;;19.66;20.71
68141;BME280;54941;52.220;104.306;2023-05-12T02:08:34;95426.66;;;19.24;21.29
68141;BME280;54941;52.220;104.306;2023-05-12T02:11:04;95434.59;;;20.11;20.07
68141;BME280;54941;52.220;104.306;2023-05-12T02:13:31;95427.16;;;19.42;20.83
68141;BME280;54941;52.220;104.306;2023-05-12T02:15:57;95431.56;;;20.53;20.06
68141;BME280;54941;52.220;104.306;2023-05-12T02:18:25;95435.22;;;18.38;21.86
68141;BME280;54941;52.220;104.306;2023-05-12T02:21:11;95425.63;;;18.61;21.48
68141;BME280;54941;52.220;104.306;2023-05-12T02:23:37;95427.66;;;19.10;21.05
68141;BME280;54941;52.220;104.306;2023-05-12T02:26:04;95435.34;;;18.89;21.07
68141;BME280;54941;52.220;104.306;2023-05-12T02:28:30;95419.06;;;18.67;21.57
68141;BME280;54941;52.220;104.306;2023-05-12T02:30:56;95425.09;;;17.90;22.53
68141;BME280;54941;52.220;104.306;2023-05-12T02:33:23;95412.63;;;18.82;21.10
68141;BME280;54941;52.220;104.306;2023-05-12T02:35:51;95408.72;;;19.50;20.88
68141;BME280;54941;52.220;104.306;2023-05-12T02:38:17;95421.66;;;18.15;21.90
68141;BME280;54941;52.220;104.306;2023-05-12T02:40:45;95416.63;;;18.62;21.74
68141;BME280;54941;52.220;104.306;2023-05-12T02:43:11;95406.41;;;19.45;20.42
68141;BME280;54941;52.220;104.306;2023-05-12T02:45:38;95389.72;;;19.04;20.66
68141;BME280;54941;52.220;104.306;2023-05-12T02:48:05;95394.25;;;18.38;21.96
68141;BME280;54941;52.220;104.306;2023-05-12T02:50:31;95392.75;;;18.34;21.71
68141;BME280;54941;52.220;104.306;2023-05-12T02:52:59;95391.13;;;18.84;21.44
68141;BME280;54941;52.220;104.306;2023-05-12T02:55:25;95376.88;;;18.71;20.99
68141;BME280;54941;52.220;104.306;2023-05-12T02:57:51;95370.59;;;20.07;20.59
68141;BME280;54941;52.220;104.306;2023-05-12T03:00:18;95365.75;;;19.02;21.53
68141;BME280;54941;52.220;104.306;2023-05-12T03:02:44;95363.94;;;18.64;21.33
68141;BME280;54941;52.220;104.306;2023-05-12T03:05:10;95342.44;;;19.28;20.53
68141;BME280;54941;52.220;104.306;2023-05-12T03:07:37;95346.25;;;19.13;21.40
68141;BME280;54941;52.220;104.306;2023-05-12T03:10:06;95329.44;;;19.60;21.14
68141;BME280;54941;52.220;104.306;2023-05-12T03:12:33;95350.22;;;19.44;21.30
68141;BME280;54941;52.220;104.306;2023-05-12T03:14:59;95347.28;;;16.55;23.56
68141;BME280;54941;52.220;104.306;2023-05-12T03:17:26;95349.69;;;16.59;24.30
68141;BME280;54941;52.220;104.306;2023-05-12T03:19:52;95344.38;;;16.88;24.10
68141;BME280;54941;52.220;104.306;2023-05-12T03:22:18;95337.88;;;16.63;24.31
68141;BME280;54941;52.220;104.306;2023-05-12T03:24:44;95340.91;;;16.43;24.63
68141;BME280;54941;52.220;104.306;2023-05-12T03:27:12;95340.34;;;16.52;24.51
68141;BME280;54941;52.220;104.306;2023-05-12T03:29:38;95341.94;;;16.41;24.40
68141;BME280;54941;52.220;104.306;2023-05-12T03:32:05;95346.31;;;15.97;25.21
68141;BME280;54941;52.220;104.306;2023-05-12T03:34:32;95333.00;;;16.27;25.04
68141;BME280;54941;52.220;104.306;2023-05-12T03:36:58;95319.66;;;16.27;24.83
68141;BME280;54941;52.220;104.306;2023-05-12T03:39:24;95321.16;;;16.76;24.34
68141;BME280;54941;52.220;104.306;2023-05-12T03:41:51;95312.81;;;16.66;24.21
68141;BME280;54941;52.220;104.306;2023-05-12T03:44:18;95329.22;;;16.01;24.97
68141;BME280;54941;52.220;104.306;2023-05-12T03:46:45;95330.34;;;15.97;25.30
68141;BME280;54941;52.220;104.306;2023-05-12T03:49:11;95334.31;;;15.60;25.54
68141;BME280;54941;52.220;104.306;2023-05-12T03:51:37;95335.50;;;15.70;25.81
68141;BME280;54941;52.220;104.306;2023-05-12T03:54:04;95335.34;;;15.42;25.78
68141;BME280;54941;52.220;104.306;2023-05-12T03:56:30;95333.50;;;15.58;25.71
68141;BME280;54941;52.220;104.306;2023-05-12T03:58:56;95337.56;;;15.65;26.01
68141;BME280;54941;52.220;104.306;2023-05-12T04:01:24;95332.84;;;15.70;25.60
68141;BME280;54941;52.220;104.306;2023-05-12T04:03:50;95312.59;;;15.98;25.25
68141;BME280;54941;52.220;104.306;2023-05-12T04:06:17;95297.94;;;15.59;26.19
68141;BME280;54941;52.220;104.306;2023-05-12T04:08:43;95295.84;;;16.10;25.38
68141;BME280;54941;52.220;104.306;2023-05-12T04:11:09;95296.81;;;16.23;25.48
68141;BME280;54941;52.220;104.306;2023-05-12T04:13:36;95291.09;;;16.29;25.54
68141;BME280;54941;52.220;104.306;2023-05-12T04:16:02;95275.03;;;17.02;24.75
68141;BME280;54941;52.220;104.306;2023-05-12T04:18:30;95258.69;;;17.07;24.52
68141;BME280;54941;52.220;104.306;2023-05-12T04:20:57;95243.66;;;17.60;23.80
68141;BME280;54941;52.220;104.306;2023-05-12T04:23:23;95248.38;;;17.69;23.60
68141;BME280;54941;52.220;104.306;2023-05-12T04:25:49;95231.63;;;17.40;23.75
68141;BME280;54941;52.220;104.306;2023-05-12T04:28:16;95230.28;;;18.25;23.05
68141;BME280;54941;52.220;104.306;2023-05-12T04:30:42;95240.50;;;18.82;22.27
68141;BME280;54941;52.220;104.306;2023-05-12T04:33:09;95220.00;;;18.44;22.63
68141;BME280;54941;52.220;104.306;2023-05-12T04:35:37;95224.06;;;18.12;23.49
68141;BME280;54941;52.220;104.306;2023-05-12T04:38:03;95230.06;;;18.15;23.25
68141;BME280;54941;52.220;104.306;2023-05-12T04:43:13;95204.19;;;18.41;23.22
68141;BME280;54941;52.220;104.306;2023-05-12T04:45:40;95204.84;;;18.06;23.34
68141;BME280;54941;52.220;104.306;2023-05-12T04:48:06;95191.31;;;17.83;23.61
68141;BME280;54941;52.220;104.306;2023-05-12T04:50:32;95195.63;;;18.23;23.12
68141;BME280;54941;52.220;104.306;2023-05-12T04:53:00;95189.16;;;18.77;22.96
68141;BME280;54941;52.220;104.306;2023-05-12T04:55:26;95184.88;;;18.98;22.74
68141;BME280;54941;52.220;104.306;2023-05-12T04:57:53;95189.59;;;18.58;22.63
68141;BME280;54941;52.220;104.306;2023-05-12T05:00:19;95176.91;;;17.72;23.85
68141;BME280;54941;52.220;104.306;2023-05-12T05:02:46;95189.66;;;18.20;23.29
68141;BME280;54941;52.220;104.306;2023-05-12T05:05:12;95183.00;;;17.74;23.62
68141;BME280;54941;52.220;104.306;2023-05-12T05:07:38;95178.13;;;18.06;23.64
68141;BME280;54941;52.220;104.306;2023-05-12T05:10:08;95173.56;;;18.45;23.46
68141;BME280;54941;52.220;104.306;2023-05-12T05:12:34;95183.13;;;17.73;23.94
68141;BME280;54941;52.220;104.306;2023-05-12T05:15:00;95152.22;;;17.94;24.18
68141;BME280;54941;52.220;104.306;2023-05-12T05:17:27;95133.78;;;18.28;24.10
68141;BME280;54941;52.220;104.306;2023-05-12T05:19:53;95149.66;;;18.31;23.93
68141;BME280;54941;52.220;104.306;2023-05-12T05:22:19;95141.47;;;18.45;24.18
68141;BME280;54941;52.220;104.306;2023-05-12T05:24:46;95136.31;;;18.68;23.34
68141;BME280;54941;52.220;104.306;2023-05-12T05:27:14;95133.22;;;18.48;23.95
68141;BME280;54941;52.220;104.306;2023-05-12T05:29:40;95133.38;;;18.34;24.09
68141;BME280;54941;52.220;104.306;2023-05-12T05:32:07;95123.06;;;18.41;24.22
68141;BME280;54941;52.220;104.306;2023-05-12T05:34:33;95109.78;;;18.52;23.73
68141;BME280;54941;52.220;104.306;2023-05-12T05:37:01;95120.66;;;18.61;23.50
68141;BME280;54941;52.220;104.306;2023-05-12T05:39:28;95111.44;;;18.42;23.64
68141;BME280;54941;52.220;104.306;2023-05-12T05:41:57;95101.53;;;18.05;24.06
68141;BME280;54941;52.220;104.306;2023-05-12T05:44:25;95109.47;;;18.56;23.54
68141;BME280;54941;52.220;104.306;2023-05-12T05:46:51;95107.69;;;18.44;23.83
68141;BME280;54941;52.220;104.306;2023-05-12T05:49:17;95093.88;;;17.88;23.86
68141;BME280;54941;52.220;104.306;2023-05-12T05:51:44;95102.06;;;18.23;24.20
68141;BME280;54941;52.220;104.306;2023-05-12T05:54:10;95081.28;;;18.27;23.89
68141;BME280;54941;52.220;104.306;2023-05-12T05:56:36;95077.81;;;18.14;24.04
68141;BME280;54941;52.220;104.306;2023-05-12T05:59:02;95075.22;;;18.25;24.02
68141;BME280;54941;52.220;104.306;2023-05-12T06:01:31;95071.28;;;18.18;24.29
68141;BME280;54941;52.220;104.306;2023-05-12T06:03:57;95045.72;;;18.14;24.29
68141;BME280;54941;52.220;104.306;2023-05-12T06:06:25;95053.72;;;18.50;24.11
68141;BME280;54941;52.220;104.306;2023-05-12T06:08:51;95034.41;;;18.10;24.28
68141;BME280;54941;52.220;104.306;2023-05-12T06:11:17;95024.78;;;18.44;24.15
68141;BME280;54941;52.220;104.306;2023-05-12T06:13:43;95023.00;;;18.32;23.92
68141;BME280;54941;52.220;104.306;2023-05-12T06:16:10;95018.47;;;18.45;24.11
68141;BME280;54941;52.220;104.306;2023-05-12T06:18:37;94999.44;;;18.37;24.15
68141;BME280;54941;52.220;104.306;2023-05-12T06:21:04;95004.28;;;18.56;24.16
68141;BME280;54941;52.220;104.306;2023-05-12T06:23:30;94996.03;;;18.35;24.00
68141;BME280;54941;52.220;104.306;2023-05-12T06:25:57;94982.72;;;18.46;24.13
68141;BME280;54941;52.220;104.306;2023-05-12T06:28:23;94962.25;;;18.93;23.93
68141;BME280;54941;52.220;104.306;2023-05-12T06:30:50;94970.59;;;18.77;23.26
68141;BME280;54941;52.220;104.306;2023-05-12T06:33:16;94945.16;;;18.48;24.02
68141;BME280;54941;52.220;104.306;2023-05-12T06:35:44;94952.34;;;19.29;23.11
68141;BME280;54941;52.220;104.306;2023-05-12T06:38:10;94950.09;;;18.89;23.31
68141;BME280;54941;52.220;104.306;2023-05-12T06:40:37;94952.03;;;18.98;23.13
68141;BME280;54941;52.220;104.306;2023-05-12T06:43:03;94954.00;;;19.07;23.36
68141;BME280;54941;52.220;104.306;2023-05-12T06:45:29;94931.91;;;18.70;23.73
68141;BME280;54941;52.220;104.306;2023-05-12T06:47:56;94902.94;;;18.40;24.03
68141;BME280;54941;52.220;104.306;2023-05-12T06:50:22;94936.31;;;18.23;24.33
68141;BME280;54941;52.220;104.306;2023-05-12T06:52:50;94920.56;;;18.31;24.37
68141;BME280;54941;52.220;104.306;2023-05-12T06:55:16;94931.09;;;18.22;24.33
68141;BME280;54941;52.220;104.306;2023-05-12T06:57:42;94927.09;;;18.62;24.30
68141;BME280;54941;52.220;104.306;2023-05-12T07:00:09;94917.75;;;18.33;24.65
68141;BME280;54941;52.220;104.306;2023-05-12T07:02:36;94923.84;;;18.35;24.54
68141;BME280;54941;52.220;104.306;2023-05-12T07:05:02;94919.19;;;18.26;24.52
68141;BME280;54941;52.220;104.306;2023-05-12T07:07:30;94904.19;;;18.47;24.40
68141;BME280;54941;52.220;104.306;2023-05-12T07:09:58;94893.97;;;18.41;24.16
68141;BME280;54941;52.220;104.306;2023-05-12T07:12:24;94904.44;;;18.44;24.50
68141;BME280;54941;52.220;104.306;2023-05-12T07:14:51;94904.06;;;18.14;24.97
68141;BME280;54941;52.220;104.306;2023-05-12T07:17:17;94913.94;;;18.24;24.80
68141;BME280;54941;52.220;104.306;2023-05-12T07:19:43;94904.03;;;18.37;25.05
68141;BME280;54941;52.220;104.306;2023-05-12T07:22:10;94887.94;;;18.26;24.79
68141;BME280;54941;52.220;104.306;2023-05-12T07:24:36;94879.75;;;18.17;24.98
68141;BME280;54941;52.220;104.306;2023-05-12T07:27:04;94883.81;;;18.57;24.86
68141;BME280;54941;52.220;104.306;2023-05-12T07:29:30;94881.38;;;18.54;24.49
68141;BME280;54941;52.220;104.306;2023-05-12T07:31:57;94874.03;;;18.80;24.75
68141;BME280;54941;52.220;104.306;2023-05-12T07:34:23;94879.53;;;18.90;24.19
68141;BME280;54941;52.220;104.306;2023-05-12T07:36:49;94868.66;;;18.69;24.74
68141;BME280;54941;52.220;104.306;2023-05-12T07:39:16;94857.75;;;18.94;24.50
68141;BME280;54941;52.220;104.306;2023-05-12T07:41:42;94856.44;;;18.89;24.19
68141;BME280;54941;52.220;104.306;2023-05-12T07:44:10;94839.63;;;19.09;24.15
68141;BME280;54941;52.220;104.306;2023-05-12T07:46:36;94840.84;;;19.16;24.01
68141;BME280;54941;52.220;104.306;2023-05-12T07:49:02;94839.16;;;19.04;24.20
68141;BME280;54941;52.220;104.306;2023-05-12T07:51:28;94854.09;;;19.07;24.40
68141;BME280;54941;52.220;104.306;2023-05-12T07:53:55;94846.44;;;19.24;24.14
68141;BME280;54941;52.220;104.306;2023-05-12T07:56:21;94843.28;;;19.08;24.06
68141;BME280;54941;52.220;104.306;2023-05-12T07:58:47;94846.06;;;19.18;24.05
68141;BME280;54941;52.220;104.306;2023-05-12T08:01:15;94840.84;;;19.05;24.25
68141;BME280;54941;52.220;104.306;2023-05-12T08:03:41;94827.47;;;19.16;24.12
68141;BME280;54941;52.220;104.306;2023-05-12T08:06:08;94830.88;;;19.18;24.17
68141;BME280;54941;52.220;104.306;2023-05-12T08:08:34;94833.19;;;19.23;23.86
68141;BME280;54941;52.220;104.306;2023-05-12T08:11:00;94853.13;;;18.97;24.28
68141;BME280;54941;52.220;104.306;2023-05-12T08:13:27;94839.63;;;19.20;24.28
68141;BME280;54941;52.220;104.306;2023-05-12T08:15:53;94828.53;;;19.59;24.01
68141;BME280;54941;52.220;104.306;2023-05-12T08:18:21;94827.91;;;19.55;24.15
68141;BME280;54941;52.220;104.306;2023-05-12T08:20:47;94813.47;;;19.35;24.19
68141;BME280;54941;52.220;104.306;2023-05-12T08:23:15;94822.56;;;19.55;23.81
68141;BME280;54941;52.220;104.306;2023-05-12T08:25:41;94815.28;;;19.57;23.82
68141;BME280;54941;52.220;104.306;2023-05-12T08:28:07;94809.78;;;19.47;24.22
68141;BME280;54941;52.220;104.306;2023-05-12T08:30:34;94797.22;;;19.70;24.00
68141;BME280;54941;52.220;104.306;2023-05-12T08:33:00;94790.34;;;19.34;23.99
68141;BME280;54941;52.220;104.306;2023-05-12T08:35:29;94780.81;;;19.41;24.17
68141;BME280;54941;52.220;104.306;2023-05-12T08:37:55;94789.47;;;19.45;24.23
68141;BME280;54941;52.220;104.306;2023-05-12T08:40:23;94759.50;;;19.40;24.58
68141;BME280;54941;52.220;104.306;2023-05-12T08:42:55;94770.59;;;19.46;24.38
68141;BME280;54941;52.220;104.306;2023-05-12T08:45:23;94770.50;;;19.26;24.33
68141;BME280;54941;52.220;104.306;2023-05-12T08:47:49;94753.03;;;19.42;24.14
68141;BME280;54941;52.220;104.306;2023-05-12T08:50:17;94752.91;;;19.44;24.27
68141;BME280;54941;52.220;104.306;2023-05-12T08:52:48;94751.28;;;19.75;24.08
68141;BME280;54941;52.220;104.306;2023-05-12T08:55:15;94747.69;;;19.86;23.70
68141;BME280;54941;52.220;104.306;2023-05-12T08:57:42;94730.50;;;19.88;23.43
68141;BME280;54941;52.220;104.306;2023-05-12T09:00:11;94741.44;;;19.53;23.84
68141;BME280;54941;52.220;104.306;2023-05-12T09:02:38;94737.13;;;19.30;23.91
68141;BME280;54941;52.220;104.306;2023-05-12T09:05:05;94734.03;;;19.13;24.00
68141;BME280;54941;52.220;104.306;2023-05-12T09:07:32;94736.22;;;18.75;24.47
68141;BME280;54941;52.220;104.306;2023-05-12T09:10:02;94744.63;;;18.70;24.73
68141;BME280;54941;52.220;104.306;2023-05-12T09:12:33;94740.38;;;18.68;24.94
68141;BME280;54941;52.220;104.306;2023-05-12T09:15:03;94741.94;;;18.59;24.72
68141;BME280;54941;52.220;104.306;2023-05-12T09:17:34;94734.63;;;18.50;24.83
68141;BME280;54941;52.220;104.306;2023-05-12T09:20:00;94733.53;;;18.30;25.15
68141;BME280;54941;52.220;104.306;2023-05-12T09:22:27;94728.06;;;18.31;25.38
68141;BME280;54941;52.220;104.306;2023-05-12T09:24:54;94734.84;;;18.35;25.30
68141;BME280;54941;52.220;104.306;2023-05-12T09:27:24;94730.63;;;18.44;25.41
68141;BME280;54941;52.220;104.306;2023-05-12T09:29:51;94716.31;;;18.68;24.78
68141;BME280;54941;52.220;104.306;2023-05-12T09:32:17;94732.34;;;18.79;24.94
68141;BME280;54941;52.220;104.306;2023-05-12T09:34:54;94744.47;;;18.60;24.96
68141;BME280;54941;52.220;104.306;2023-05-12T09:37:29;94729.06;;;18.86;24.64
68141;BME280;54941;52.220;104.306;2023-05-12T09:39:58;94719.97;;;18.67;24.78
68141;BME280;54941;52.220;104.306;2023-05-12T09:42:28;94725.03;;;18.47;24.83
68141;BME280;54941;52.220;104.306;2023-05-12T09:44:58;94720.53;;;18.59;24.96
68141;BME280;54941;52.220;104.306;2023-05-12T09:47:26;94724.78;;;18.61;25.13
68141;BME280;54941;52.220;104.306;2023-05-12T09:49:53;94728.00;;;18.67;24.99
68141;BME280;54941;52.220;104.306;2023-05-12T09:52:20;94717.03;;;18.81;25.17
68141;BME280;54941;52.220;104.306;2023-05-12T09:54:46;94715.91;;;18.61;25.14
68141;BME280;54941;52.220;104.306;2023-05-12T09:57:15;94702.91;;;18.56;24.95
68141;BME280;54941;52.220;104.306;2023-05-12T09:59:43;94701.34;;;18.76;25.00
68141;BME280;54941;52.220;104.306;2023-05-12T10:02:12;94690.75;;;18.41;24.86
68141;BME280;54941;52.220;104.306;2023-05-12T10:04:43;94705.81;;;18.31;25.27
68141;BME280;54941;52.220;104.306;2023-05-12T10:07:12;94704.84;;;18.32;25.44
68141;BME280;54941;52.220;104.306;2023-05-12T10:09:41;94679.31;;;18.39;25.35
68141;BME280;54941;52.220;104.306;2023-05-12T10:12:08;94697.81;;;18.42;25.85
68141;BME280;54941;52.220;104.306;2023-05-12T10:14:36;94688.19;;;18.06;26.34
68141;BME280;54941;52.220;104.306;2023-05-12T10:17:04;94698.69;;;17.85;26.68
68141;BME280;54941;52.220;104.306;2023-05-12T10:19:31;94698.94;;;17.34;27.49
68141;BME280;54941;52.220;104.306;2023-05-12T10:21:58;94705.56;;;17.41;27.41
68141;BME280;54941;52.220;104.306;2023-05-12T10:24:26;94702.88;;;17.17;27.35
68141;BME280;54941;52.220;104.306;2023-05-12T10:26:53;94695.44;;;17.10;27.61
68141;BME280;54941;52.220;104.306;2023-05-12T10:29:19;94684.81;;;16.97;27.78
68141;BME280;54941;52.220;104.306;2023-05-12T10:31:46;94674.09;;;16.86;27.75
68141;BME280;54941;52.220;104.306;2023-05-12T10:34:17;94685.53;;;16.75;27.88
68141;BME280;54941;52.220;104.306;2023-05-12T10:36:48;94683.63;;;16.64;28.12
68141;BME280;54941;52.220;104.306;2023-05-12T10:39:14;94696.31;;;16.61;28.19
68141;BME280;54941;52.220;104.306;2023-05-12T10:41:41;94701.72;;;16.85;27.94
68141;BME280;54941;52.220;104.306;2023-05-12T10:44:08;94700.03;;;16.84;28.26
68141;BME280;54941;52.220;104.306;2023-05-12T10:46:34;94695.91;;;17.04;27.87
68141;BME280;54941;52.220;104.306;2023-05-12T10:49:01;94692.53;;;17.13;27.97
68141;BME280;54941;52.220;104.306;2023-05-12T10:51:31;94706.78;;;17.25;27.81
68141;BME280;54941;52.220;104.306;2023-05-12T10:53:59;94700.44;;;17.38;27.62
68141;BME280;54941;52.220;104.306;2023-05-12T10:56:28;94711.59;;;17.67;26.91
68141;BME280;54941;52.220;104.306;2023-05-12T10:59:12;94712.94;;;17.38;27.48
68141;BME280;54941;52.220;104.306;2023-05-12T11:01:39;94712.25;;;17.23;27.65
68141;BME280;54941;52.220;104.306;2023-05-12T11:04:10;94698.91;;;17.23;27.63
68141;BME280;54941;52.220;104.306;2023-05-12T11:06:39;94704.59;;;16.95;28.00
68141;BME280;54941;52.220;104.306;2023-05-12T11:09:06;94710.00;;;16.69;28.39
68141;BME280;54941;52.220;104.306;2023-05-12T11:11:33;94709.44;;;16.51;28.74
68141;BME280;54941;52.220;104.306;2023-05-12T11:13:59;94719.25;;;16.51;28.67
68141;BME280;54941;52.220;104.306;2023-05-12T11:16:26;94724.19;;;16.31;29.09
68141;BME280;54941;52.220;104.306;2023-05-12T11:19:00;94716.75;;;16.11;29.12
68141;BME280;54941;52.220;104.306;2023-05-12T11:21:26;94714.19;;;16.10;29.57
68141;BME280;54941;52.220;104.306;2023-05-12T11:23:54;94718.44;;;15.99;29.54
68141;BME280;54941;52.220;104.306;2023-05-12T11:26:21;94717.66;;;15.72;29.55
68141;BME280;54941;52.220;104.306;2023-05-12T11:28:47;94720.28;;;15.59;29.65
68141;BME280;54941;52.220;104.306;2023-05-12T11:31:17;94723.31;;;15.67;29.47
68141;BME280;54941;52.220;104.306;2023-05-12T11:33:43;94725.03;;;15.41;29.63
68141;BME280;54941;52.220;104.306;2023-05-12T11:36:10;94725.44;;;15.35;29.55
68141;BME280;54941;52.220;104.306;2023-05-12T11:38:36;94727.88;;;15.38;29.41
68141;BME280;54941;52.220;104.306;2023-05-12T11:41:04;94723.25;;;15.28;29.15
68141;BME280;54941;52.220;104.306;2023-05-12T11:43:30;94721.25;;;15.18;29.50
68141;BME280;54941;52.220;104.306;2023-05-12T11:45:57;94725.25;;;15.11;29.61
68141;BME280;54941;52.220;104.306;2023-05-12T11:48:31;94724.72;;;14.92;29.96
68141;BME280;54941;52.220;104.306;2023-05-12T11:50:59;94726.09;;;14.85;29.91
68141;BME280;54941;52.220;104.306;2023-05-12T11:53:25;94733.16;;;14.72;30.06
68141;BME280;54941;52.220;104.306;2023-05-12T11:55:53;94727.75;;;14.45;30.35
68141;BME280;54941;52.220;104.306;2023-05-12T11:58:22;94745.88;;;14.38;30.58
68141;BME280;54941;52.220;104.306;2023-05-12T12:00:48;94736.28;;;14.21;30.74
68141;BME280;54941;52.220;104.306;2023-05-12T12:03:15;94733.41;;;14.10;30.99
68141;BME280;54941;52.220;104.306;2023-05-12T12:05:42;94733.22;;;13.99;30.66
68141;BME280;54941;52.220;104.306;2023-05-12T12:08:11;94738.22;;;13.75;31.48
68141;BME280;54941;52.220;104.306;2023-05-12T12:10:37;94737.69;;;13.54;31.50
68141;BME280;54941;52.220;104.306;2023-05-12T12:13:04;94738.47;;;13.26;32.04
68141;BME280;54941;52.220;104.306;2023-05-12T12:15:32;94739.94;;;13.32;31.88
68141;BME280;54941;52.220;104.306;2023-05-12T12:17:58;94745.81;;;13.05;32.17
68141;BME280;54941;52.220;104.306;2023-05-12T12:20:24;94743.88;;;12.93;32.40
68141;BME280;54941;52.220;104.306;2023-05-12T12:22:51;94753.38;;;12.81;32.48
68141;BME280;54941;52.220;104.306;2023-05-12T12:25:18;94752.59;;;12.79;32.32
68141;BME280;54941;52.220;104.306;2023-05-12T12:27:44;94763.13;;;12.65;32.64
68141;BME280;54941;52.220;104.306;2023-05-12T12:30:12;94753.69;;;12.44;32.98
68141;BME280;54941;52.220;104.306;2023-05-12T12:32:40;94765.63;;;12.35;32.92
68141;BME280;54941;52.220;104.306;2023-05-12T12:35:07;94773.66;;;12.18;33.22
68141;BME280;54941;52.220;104.306;2023-05-12T12:37:33;94771.88;;;12.01;33.34
68141;BME280;54941;52.220;104.306;2023-05-12T12:40:00;94769.53;;;11.78;33.32
68141;BME280;54941;52.220;104.306;2023-05-12T12:42:26;94783.94;;;11.55;34.01